sensor_id;sensor_type;location;lat;lon;timestamp;P1;durP1;ratioP1;P2;durP2;ratioP2
48002;SDS011;33768;48.578;11.574;2023-08-21T00:01:34;9.63;;;7.47;;
48002;SDS011;33768;48.578;11.574;2023-08-21T00:04:38;9.07;;;6.60;;
48002;SDS011;33768;48.578;11.574;2023-08-21T00:07:42;8.80;;;6.90;;
48002;SDS011;33768;48.578;11.574;2023-08-21T00:10:47;10.57;;;7.80;;
48002;SDS011;33768;48.578;11.574;2023-08-21T00:13:51;9.30;;;7.23;;
48002;SDS011;33768;48.578;11.574;2023-08-21T00:16:55;10.30;;;7.53;;
48002;SDS011;33768;48.578;11.574;2023-08-21T00:20:00;9.67;;;7.87;;
48002;SDS011;33768;48.578;11.574;2023-08-21T00:23:04;8.10;;;7.30;;
48002;SDS011;33768;48.578;11.574;2023-08-21T00:26:08;8.70;;;7.70;;
48002;SDS011;33768;48.578;11.574;2023-08-21T00:29:12;8.50;;;7.70;;
48002;SDS011;33768;48.578;11.574;2023-08-21T00:32:16;8.70;;;7.43;;
48002;SDS011;33768;48.578;11.574;2023-08-21T00:35:20;9.87;;;7.73;;
48002;SDS011;33768;48.578;11.574;2023-08-21T00:38:24;9.30;;;8.30;;
48002;SDS011;33768;48.578;11.574;2023-08-21T00:41:28;9.20;;;8.20;;
48002;SDS011;33768;48.578;11.574;2023-08-21T00:44:32;10.03;;;7.50;;
48002;SDS011;33768;48.578;11.574;2023-08-21T00:47:37;8.87;;;7.53;;
48002;SDS011;33768;48.578;11.574;2023-08-21T00:50:41;11.97;;;7.63;;
48002;SDS011;33768;48.578;11.574;2023-08-21T00:53:46;8.43;;;7.30;;
48002;SDS011;33768;48.578;11.574;2023-08-21T00:56:50;8.67;;;7.77;;
48002;SDS011;33768;48.578;11.574;2023-08-21T00:59:55;10.97;;;7.83;;
48002;SDS011;33768;48.578;11.574;2023-08-21T01:02:59;8.83;;;7.53;;
48002;SDS011;33768;48.578;11.574;2023-08-21T01:06:04;9.97;;;8.70;;
48002;SDS011;33768;48.578;11.574;2023-08-21T01:15:54;9.03;;;8.13;;
48002;SDS011;33768;48.578;11.574;2023-08-21T01:19:00;9.60;;;8.20;;
48002;SDS011;33768;48.578;11.574;2023-08-21T01:22:05;9.27;;;8.10;;
48002;SDS011;33768;48.578;11.574;2023-08-21T01:25:10;12.20;;;7.80;;
48002;SDS011;33768;48.578;11.574;2023-08-21T01:28:14;11.73;;;7.70;;
48002;SDS011;33768;48.578;11.574;2023-08-21T01:31:19;8.70;;;7.60;;
48002;SDS011;33768;48.578;11.574;2023-08-21T01:34:28;11.40;;;8.13;;
48002;SDS011;33768;48.578;11.574;2023-08-21T01:37:33;9.07;;;7.93;;
48002;SDS011;33768;48.578;11.574;2023-08-21T01:40:38;10.60;;;7.80;;
48002;SDS011;33768;48.578;11.574;2023-08-21T01:43:43;10.53;;;7.80;;
48002;SDS011;33768;48.578;11.574;2023-08-21T01:46:47;8.60;;;7.60;;
48002;SDS011;33768;48.578;11.574;2023-08-21T01:49:52;11.20;;;8.20;;
48002;SDS011;33768;48.578;11.574;2023-08-21T01:52:57;10.43;;;8.67;;
48002;SDS011;33768;48.578;11.574;2023-08-21T01:56:01;9.37;;;8.47;;
48002;SDS011;33768;48.578;11.574;2023-08-21T01:59:05;10.40;;;8.47;;
48002;SDS011;33768;48.578;11.574;2023-08-21T02:02:10;8.97;;;8.07;;
48002;SDS011;33768;48.578;11.574;2023-08-21T02:05:14;14.30;;;8.83;;
48002;SDS011;33768;48.578;11.574;2023-08-21T02:08:19;9.10;;;8.00;;
48002;SDS011;33768;48.578;11.574;2023-08-21T02:11:23;9.40;;;8.10;;
48002;SDS011;33768;48.578;11.574;2023-08-21T02:14:29;14.17;;;9.37;;
48002;SDS011;33768;48.578;11.574;2023-08-21T02:17:33;8.73;;;7.90;;
48002;SDS011;33768;48.578;11.574;2023-08-21T02:20:37;11.03;;;9.00;;
48002;SDS011;33768;48.578;11.574;2023-08-21T02:23:42;10.63;;;9.07;;
48002;SDS011;33768;48.578;11.574;2023-08-21T02:26:48;10.50;;;8.23;;
48002;SDS011;33768;48.578;11.574;2023-08-21T02:29:52;11.03;;;8.87;;
48002;SDS011;33768;48.578;11.574;2023-08-21T02:32:55;15.47;;;9.60;;
48002;SDS011;33768;48.578;11.574;2023-08-21T02:36:00;9.77;;;8.70;;
48002;SDS011;33768;48.578;11.574;2023-08-21T02:39:07;9.90;;;8.87;;
48002;SDS011;33768;48.578;11.574;2023-08-21T02:42:11;12.97;;;9.73;;
48002;SDS011;33768;48.578;11.574;2023-08-21T02:45:16;11.47;;;8.50;;
48002;SDS011;33768;48.578;11.574;2023-08-21T02:48:20;9.40;;;8.40;;
48002;SDS011;33768;48.578;11.574;2023-08-21T02:51:24;11.40;;;8.47;;
48002;SDS011;33768;48.578;11.574;2023-08-21T02:54:28;11.37;;;8.20;;
48002;SDS011;33768;48.578;11.574;2023-08-21T02:57:33;9.07;;;8.17;;
48002;SDS011;33768;48.578;11.574;2023-08-21T03:00:37;9.80;;;7.70;;
48002;SDS011;33768;48.578;11.574;2023-08-21T03:03:41;11.50;;;7.93;;
48002;SDS011;33768;48.578;11.574;2023-08-21T03:06:45;9.30;;;8.50;;
48002;SDS011;33768;48.578;11.574;2023-08-21T03:09:50;14.00;;;8.87;;
48002;SDS011;33768;48.578;11.574;2023-08-21T03:12:54;11.90;;;9.00;;
48002;SDS011;33768;48.578;11.574;2023-08-21T03:15:58;11.47;;;8.20;;
48002;SDS011;33768;48.578;11.574;2023-08-21T03:19:04;11.20;;;8.50;;
48002;SDS011;33768;48.578;11.574;2023-08-21T03:22:08;10.53;;;8.10;;
48002;SDS011;33768;48.578;11.574;2023-08-21T03:25:13;8.73;;;7.80;;
48002;SDS011;33768;48.578;11.574;2023-08-21T03:28:17;8.80;;;8.00;;
48002;SDS011;33768;48.578;11.574;2023-08-21T03:31:21;11.80;;;7.63;;
48002;SDS011;33768;48.578;11.574;2023-08-21T03:34:26;9.20;;;8.27;;
48002;SDS011;33768;48.578;11.574;2023-08-21T03:37:34;8.97;;;8.07;;
48002;SDS011;33768;48.578;11.574;2023-08-21T03:40:39;13.37;;;8.73;;
48002;SDS011;33768;48.578;11.574;2023-08-21T03:43:43;9.57;;;8.57;;
48002;SDS011;33768;48.578;11.574;2023-08-21T03:46:47;9.10;;;8.20;;
48002;SDS011;33768;48.578;11.574;2023-08-21T03:49:52;10.37;;;8.00;;
48002;SDS011;33768;48.578;11.574;2023-08-21T03:52:59;9.27;;;8.17;;
48002;SDS011;33768;48.578;11.574;2023-08-21T03:56:03;9.47;;;8.00;;
48002;SDS011;33768;48.578;11.574;2023-08-21T03:59:07;9.23;;;7.73;;
48002;SDS011;33768;48.578;11.574;2023-08-21T04:02:11;10.53;;;9.37;;
48002;SDS011;33768;48.578;11.574;2023-08-21T04:05:15;10.17;;;8.33;;
48002;SDS011;33768;48.578;11.574;2023-08-21T04:08:19;10.77;;;8.93;;
48002;SDS011;33768;48.578;11.574;2023-08-21T04:11:23;9.63;;;8.63;;
48002;SDS011;33768;48.578;11.574;2023-08-21T04:14:27;9.80;;;7.97;;
48002;SDS011;33768;48.578;11.574;2023-08-21T04:17:31;10.43;;;8.43;;
48002;SDS011;33768;48.578;11.574;2023-08-21T04:20:37;13.57;;;8.30;;
48002;SDS011;33768;48.578;11.574;2023-08-21T04:23:41;10.30;;;8.33;;
48002;SDS011;33768;48.578;11.574;2023-08-21T04:26:45;11.57;;;8.70;;
48002;SDS011;33768;48.578;11.574;2023-08-21T04:29:49;10.70;;;8.17;;
48002;SDS011;33768;48.578;11.574;2023-08-21T04:32:53;10.57;;;8.10;;
48002;SDS011;33768;48.578;11.574;2023-08-21T04:35:57;11.93;;;8.23;;
48002;SDS011;33768;48.578;11.574;2023-08-21T04:39:02;11.30;;;8.30;;
48002;SDS011;33768;48.578;11.574;2023-08-21T04:42:06;12.67;;;8.20;;
48002;SDS011;33768;48.578;11.574;2023-08-21T04:45:11;9.97;;;7.80;;
48002;SDS011;33768;48.578;11.574;2023-08-21T04:48:16;9.90;;;8.33;;
48002;SDS011;33768;48.578;11.574;2023-08-21T04:51:23;8.93;;;8.00;;
48002;SDS011;33768;48.578;11.574;2023-08-21T04:54:27;11.73;;;8.50;;
48002;SDS011;33768;48.578;11.574;2023-08-21T04:57:31;9.40;;;8.30;;
48002;SDS011;33768;48.578;11.574;2023-08-21T05:00:36;11.80;;;8.13;;
48002;SDS011;33768;48.578;11.574;2023-08-21T05:03:40;11.67;;;8.30;;
48002;SDS011;33768;48.578;11.574;2023-08-21T05:06:45;9.87;;;8.50;;
48002;SDS011;33768;48.578;11.574;2023-08-21T05:09:49;8.87;;;7.97;;
48002;SDS011;33768;48.578;11.574;2023-08-21T05:12:57;9.83;;;8.10;;
48002;SDS011;33768;48.578;11.574;2023-08-21T05:16:01;9.50;;;8.57;;
48002;SDS011;33768;48.578;11.574;2023-08-21T05:19:10;13.17;;;8.87;;
48002;SDS011;33768;48.578;11.574;2023-08-21T05:22:14;11.93;;;8.97;;
48002;SDS011;33768;48.578;11.574;2023-08-21T05:25:19;9.93;;;8.93;;
48002;SDS011;33768;48.578;11.574;2023-08-21T05:28:24;9.43;;;8.43;;
48002;SDS011;33768;48.578;11.574;2023-08-21T05:31:29;13.10;;;8.97;;
48002;SDS011;33768;48.578;11.574;2023-08-21T05:34:33;10.40;;;8.63;;
48002;SDS011;33768;48.578;11.574;2023-08-21T05:37:37;11.97;;;8.97;;
48002;SDS011;33768;48.578;11.574;2023-08-21T05:40:42;11.57;;;9.40;;
48002;SDS011;33768;48.578;11.574;2023-08-21T05:43:46;13.97;;;9.47;;
48002;SDS011;33768;48.578;11.574;2023-08-21T05:46:53;15.57;;;9.40;;
48002;SDS011;33768;48.578;11.574;2023-08-21T05:49:57;11.27;;;8.97;;
48002;SDS011;33768;48.578;11.574;2023-08-21T05:53:05;13.60;;;9.43;;
48002;SDS011;33768;48.578;11.574;2023-08-21T05:56:10;12.80;;;9.30;;
48002;SDS011;33768;48.578;11.574;2023-08-21T05:59:23;14.27;;;8.87;;
48002;SDS011;33768;48.578;11.574;2023-08-21T06:02:31;10.70;;;8.40;;
48002;SDS011;33768;48.578;11.574;2023-08-21T06:05:36;10.13;;;8.40;;
48002;SDS011;33768;48.578;11.574;2023-08-21T06:08:40;14.03;;;8.40;;
48002;SDS011;33768;48.578;11.574;2023-08-21T06:11:45;9.30;;;8.03;;
48002;SDS011;33768;48.578;11.574;2023-08-21T06:14:49;10.63;;;8.83;;
48002;SDS011;33768;48.578;11.574;2023-08-21T06:17:54;10.03;;;9.03;;
48002;SDS011;33768;48.578;11.574;2023-08-21T06:20:58;13.00;;;10.07;;
48002;SDS011;33768;48.578;11.574;2023-08-21T06:24:02;11.03;;;9.30;;
48002;SDS011;33768;48.578;11.574;2023-08-21T06:27:07;11.10;;;9.50;;
48002;SDS011;33768;48.578;11.574;2023-08-21T06:30:12;11.10;;;9.50;;
48002;SDS011;33768;48.578;11.574;2023-08-21T06:33:17;11.37;;;9.47;;
48002;SDS011;33768;48.578;11.574;2023-08-21T06:36:21;13.10;;;9.60;;
48002;SDS011;33768;48.578;11.574;2023-08-21T06:39:25;10.47;;;9.47;;
48002;SDS011;33768;48.578;11.574;2023-08-21T06:42:29;11.63;;;9.93;;
48002;SDS011;33768;48.578;11.574;2023-08-21T06:45:33;11.17;;;9.77;;
48002;SDS011;33768;48.578;11.574;2023-08-21T06:48:40;10.57;;;9.47;;
48002;SDS011;33768;48.578;11.574;2023-08-21T06:51:47;10.67;;;9.57;;
48002;SDS011;33768;48.578;11.574;2023-08-21T06:54:51;10.60;;;9.50;;
48002;SDS011;33768;48.578;11.574;2023-08-21T06:57:56;9.77;;;8.77;;
48002;SDS011;33768;48.578;11.574;2023-08-21T07:01:00;9.63;;;8.70;;
48002;SDS011;33768;48.578;11.574;2023-08-21T07:04:05;10.37;;;8.67;;
48002;SDS011;33768;48.578;11.574;2023-08-21T07:07:10;10.47;;;8.60;;
48002;SDS011;33768;48.578;11.574;2023-08-21T07:10:14;12.60;;;8.67;;
48002;SDS011;33768;48.578;11.574;2023-08-21T07:13:19;11.33;;;8.83;;
48002;SDS011;33768;48.578;11.574;2023-08-21T07:16:23;10.90;;;7.73;;
48002;SDS011;33768;48.578;11.574;2023-08-21T07:19:28;9.47;;;7.57;;
48002;SDS011;33768;48.578;11.574;2023-08-21T07:22:32;13.13;;;7.90;;
48002;SDS011;33768;48.578;11.574;2023-08-21T07:25:36;9.73;;;7.07;;
48002;SDS011;33768;48.578;11.574;2023-08-21T07:28:40;7.73;;;7.00;;
48002;SDS011;33768;48.578;11.574;2023-08-21T07:31:44;7.50;;;6.80;;
48002;SDS011;33768;48.578;11.574;2023-08-21T07:34:52;7.93;;;6.97;;
48002;SDS011;33768;48.578;11.574;2023-08-21T07:38:00;7.27;;;6.57;;
48002;SDS011;33768;48.578;11.574;2023-08-21T07:41:05;9.17;;;6.77;;
48002;SDS011;33768;48.578;11.574;2023-08-21T07:44:11;9.13;;;6.57;;
48002;SDS011;33768;48.578;11.574;2023-08-21T07:47:15;8.77;;;6.77;;
48002;SDS011;33768;48.578;11.574;2023-08-21T07:50:19;7.80;;;7.10;;
48002;SDS011;33768;48.578;11.574;2023-08-21T07:53:24;8.20;;;6.70;;
48002;SDS011;33768;48.578;11.574;2023-08-21T07:56:29;9.43;;;6.43;;
48002;SDS011;33768;48.578;11.574;2023-08-21T07:59:33;7.93;;;6.70;;
48002;SDS011;33768;48.578;11.574;2023-08-21T08:02:37;7.03;;;6.28;;
48002;SDS011;33768;48.578;11.574;2023-08-21T08:05:41;9.90;;;5.93;;
48002;SDS011;33768;48.578;11.574;2023-08-21T08:08:46;6.90;;;6.20;;
48002;SDS011;33768;48.578;11.574;2023-08-21T08:11:50;8.35;;;6.40;;
48002;SDS011;33768;48.578;11.574;2023-08-21T08:14:54;7.03;;;6.10;;
48002;SDS011;33768;48.578;11.574;2023-08-21T08:17:58;6.45;;;5.75;;
48002;SDS011;33768;48.578;11.574;2023-08-21T08:21:02;6.88;;;5.15;;
48002;SDS011;33768;48.578;11.574;2023-08-21T08:24:06;6.90;;;5.07;;
48002;SDS011;33768;48.578;11.574;2023-08-21T08:27:10;7.13;;;5.85;;
48002;SDS011;33768;48.578;11.574;2023-08-21T08:30:15;7.32;;;5.60;;
48002;SDS011;33768;48.578;11.574;2023-08-21T08:33:19;5.55;;;5.03;;
48002;SDS011;33768;48.578;11.574;2023-08-21T08:36:23;5.75;;;5.15;;
48002;SDS011;33768;48.578;11.574;2023-08-21T08:39:28;5.55;;;5.05;;
48002;SDS011;33768;48.578;11.574;2023-08-21T08:42:32;9.35;;;5.78;;
48002;SDS011;33768;48.578;11.574;2023-08-21T08:45:38;6.32;;;5.15;;
48002;SDS011;33768;48.578;11.574;2023-08-21T08:48:44;6.07;;;5.55;;
48002;SDS011;33768;48.578;11.574;2023-08-21T08:51:51;7.90;;;6.00;;
48002;SDS011;33768;48.578;11.574;2023-08-21T08:54:55;8.30;;;5.50;;
48002;SDS011;33768;48.578;11.574;2023-08-21T08:58:01;8.63;;;5.47;;
48002;SDS011;33768;48.578;11.574;2023-08-21T09:01:05;7.63;;;5.82;;
48002;SDS011;33768;48.578;11.574;2023-08-21T09:04:10;13.52;;;5.88;;
48002;SDS011;33768;48.578;11.574;2023-08-21T09:07:16;7.07;;;6.15;;
48002;SDS011;33768;48.578;11.574;2023-08-21T09:10:21;6.35;;;5.72;;
48002;SDS011;33768;48.578;11.574;2023-08-21T09:13:29;6.75;;;6.15;;
48002;SDS011;33768;48.578;11.574;2023-08-21T09:16:34;6.80;;;6.10;;
48002;SDS011;33768;48.578;11.574;2023-08-21T09:19:39;9.90;;;6.15;;
48002;SDS011;33768;48.578;11.574;2023-08-21T09:22:44;7.80;;;6.25;;
48002;SDS011;33768;48.578;11.574;2023-08-21T09:25:56;9.88;;;5.93;;
48002;SDS011;33768;48.578;11.574;2023-08-21T09:29:02;6.30;;;5.70;;
48002;SDS011;33768;48.578;11.574;2023-08-21T09:32:08;10.88;;;6.90;;
48002;SDS011;33768;48.578;11.574;2023-08-21T09:35:13;7.35;;;6.65;;
48002;SDS011;33768;48.578;11.574;2023-08-21T09:38:18;7.05;;;6.35;;
48002;SDS011;33768;48.578;11.574;2023-08-21T09:41:23;7.53;;;6.32;;
48002;SDS011;33768;48.578;11.574;2023-08-21T09:44:28;7.50;;;6.80;;
48002;SDS011;33768;48.578;11.574;2023-08-21T09:47:32;7.03;;;6.32;;
48002;SDS011;33768;48.578;11.574;2023-08-21T09:50:37;7.20;;;6.60;;
48002;SDS011;33768;48.578;11.574;2023-08-21T09:53:42;8.52;;;6.70;;
48002;SDS011;33768;48.578;11.574;2023-08-21T09:56:46;7.00;;;6.28;;
48002;SDS011;33768;48.578;11.574;2023-08-21T09:59:53;8.57;;;6.00;;
48002;SDS011;33768;48.578;11.574;2023-08-21T10:02:59;7.95;;;6.22;;
48002;SDS011;33768;48.578;11.574;2023-08-21T10:06:10;6.45;;;5.85;;
48002;SDS011;33768;48.578;11.574;2023-08-21T10:09:15;6.57;;;5.85;;
48002;SDS011;33768;48.578;11.574;2023-08-21T10:12:19;7.10;;;5.75;;
48002;SDS011;33768;48.578;11.574;2023-08-21T10:15:27;7.22;;;5.35;;
48002;SDS011;33768;48.578;11.574;2023-08-21T10:18:32;6.38;;;5.78;;
48002;SDS011;33768;48.578;11.574;2023-08-21T10:21:37;7.60;;;6.03;;
48002;SDS011;33768;48.578;11.574;2023-08-21T10:24:41;6.35;;;5.75;;
48002;SDS011;33768;48.578;11.574;2023-08-21T10:27:45;10.30;;;7.13;;
48002;SDS011;33768;48.578;11.574;2023-08-21T10:30:50;7.78;;;5.95;;
48002;SDS011;33768;48.578;11.574;2023-08-21T10:33:55;6.55;;;6.05;;
48002;SDS011;33768;48.578;11.574;2023-08-21T10:40:04;7.05;;;5.40;;
48002;SDS011;33768;48.578;11.574;2023-08-21T10:46:52;6.80;;;6.20;;
48002;SDS011;33768;48.578;11.574;2023-08-21T10:53:07;6.22;;;5.38;;
48002;SDS011;33768;48.578;11.574;2023-08-21T10:56:11;5.63;;;5.13;;
48002;SDS011;33768;48.578;11.574;2023-08-21T10:59:16;5.25;;;4.65;;
48002;SDS011;33768;48.578;11.574;2023-08-21T11:02:20;7.70;;;4.97;;
48002;SDS011;33768;48.578;11.574;2023-08-21T11:05:25;7.95;;;4.93;;
48002;SDS011;33768;48.578;11.574;2023-08-21T11:08:29;6.43;;;4.68;;
48002;SDS011;33768;48.578;11.574;2023-08-21T11:11:34;5.53;;;5.03;;
48002;SDS011;33768;48.578;11.574;2023-08-21T11:14:39;8.00;;;4.95;;
48002;SDS011;33768;48.578;11.574;2023-08-21T11:18:02;8.20;;;4.88;;
48002;SDS011;33768;48.578;11.574;2023-08-21T11:21:07;14.50;;;5.18;;
48002;SDS011;33768;48.578;11.574;2023-08-21T11:24:12;6.60;;;4.90;;
48002;SDS011;33768;48.578;11.574;2023-08-21T11:27:17;5.70;;;4.57;;
48002;SDS011;33768;48.578;11.574;2023-08-21T11:30:22;6.45;;;4.45;;
48002;SDS011;33768;48.578;11.574;2023-08-21T11:33:27;5.43;;;4.93;;
48002;SDS011;33768;48.578;11.574;2023-08-21T11:36:32;6.53;;;4.85;;
48002;SDS011;33768;48.578;11.574;2023-08-21T11:39:41;4.72;;;4.32;;
48002;SDS011;33768;48.578;11.574;2023-08-21T11:42:47;4.45;;;4.03;;
48002;SDS011;33768;48.578;11.574;2023-08-21T11:45:55;6.32;;;4.57;;
48002;SDS011;33768;48.578;11.574;2023-08-21T11:48:59;5.60;;;4.70;;
48002;SDS011;33768;48.578;11.574;2023-08-21T11:52:04;5.57;;;5.07;;
48002;SDS011;33768;48.578;11.574;2023-08-21T11:55:08;4.68;;;4.15;;
48002;SDS011;33768;48.578;11.574;2023-08-21T11:58:16;8.15;;;4.45;;
48002;SDS011;33768;48.578;11.574;2023-08-21T12:01:22;4.35;;;4.05;;
48002;SDS011;33768;48.578;11.574;2023-08-21T12:04:26;5.63;;;4.40;;
48002;SDS011;33768;48.578;11.574;2023-08-21T12:07:31;4.68;;;3.70;;
48002;SDS011;33768;48.578;11.574;2023-08-21T12:10:36;4.88;;;4.30;;
48002;SDS011;33768;48.578;11.574;2023-08-21T12:13:40;5.35;;;4.50;;
48002;SDS011;33768;48.578;11.574;2023-08-21T12:16:45;4.90;;;4.40;;
48002;SDS011;33768;48.578;11.574;2023-08-21T12:19:49;4.72;;;4.32;;
48002;SDS011;33768;48.578;11.574;2023-08-21T12:22:53;5.15;;;4.22;;
48002;SDS011;33768;48.578;11.574;2023-08-21T12:25:57;7.30;;;4.65;;
48002;SDS011;33768;48.578;11.574;2023-08-21T12:29:01;5.47;;;4.10;;
48002;SDS011;33768;48.578;11.574;2023-08-21T12:32:06;5.63;;;4.00;;
48002;SDS011;33768;48.578;11.574;2023-08-21T12:35:10;6.32;;;4.15;;
48002;SDS011;33768;48.578;11.574;2023-08-21T12:38:15;4.15;;;3.80;;
48002;SDS011;33768;48.578;11.574;2023-08-21T12:41:19;5.82;;;4.07;;
48002;SDS011;33768;48.578;11.574;2023-08-21T12:44:23;4.95;;;4.20;;
48002;SDS011;33768;48.578;11.574;2023-08-21T12:47:28;4.22;;;3.83;;
48002;SDS011;33768;48.578;11.574;2023-08-21T12:50:32;5.70;;;4.38;;
48002;SDS011;33768;48.578;11.574;2023-08-21T12:53:36;6.10;;;4.10;;
48002;SDS011;33768;48.578;11.574;2023-08-21T12:56:40;5.55;;;4.40;;
48002;SDS011;33768;48.578;11.574;2023-08-21T12:59:44;5.10;;;4.22;;
48002;SDS011;33768;48.578;11.574;2023-08-21T13:02:48;4.65;;;4.15;;
48002;SDS011;33768;48.578;11.574;2023-08-21T13:05:52;5.13;;;4.15;;
48002;SDS011;33768;48.578;11.574;2023-08-21T13:08:56;4.38;;;3.90;;
48002;SDS011;33768;48.578;11.574;2023-08-21T13:12:01;4.35;;;3.95;;
48002;SDS011;33768;48.578;11.574;2023-08-21T13:15:05;6.97;;;3.90;;
48002;SDS011;33768;48.578;11.574;2023-08-21T13:18:11;6.93;;;3.88;;
48002;SDS011;33768;48.578;11.574;2023-08-21T13:21:15;5.78;;;4.50;;
48002;SDS011;33768;48.578;11.574;2023-08-21T13:24:19;6.32;;;4.18;;
48002;SDS011;33768;48.578;11.574;2023-08-21T13:27:23;6.03;;;4.22;;
48002;SDS011;33768;48.578;11.574;2023-08-21T13:30:27;7.72;;;4.63;;
48002;SDS011;33768;48.578;11.574;2023-08-21T13:33:32;4.22;;;3.88;;
48002;SDS011;33768;48.578;11.574;2023-08-21T13:36:37;6.88;;;4.22;;
48002;SDS011;33768;48.578;11.574;2023-08-21T13:39:42;5.45;;;4.00;;
48002;SDS011;33768;48.578;11.574;2023-08-21T13:42:47;4.85;;;4.20;;
48002;SDS011;33768;48.578;11.574;2023-08-21T13:45:51;4.68;;;4.20;;
48002;SDS011;33768;48.578;11.574;2023-08-21T13:48:56;6.50;;;4.57;;
48002;SDS011;33768;48.578;11.574;2023-08-21T13:52:00;4.32;;;3.90;;
48002;SDS011;33768;48.578;11.574;2023-08-21T13:55:05;6.82;;;4.28;;
48002;SDS011;33768;48.578;11.574;2023-08-21T13:58:10;6.00;;;4.50;;
48002;SDS011;33768;48.578;11.574;2023-08-21T14:01:14;4.68;;;4.25;;
48002;SDS011;33768;48.578;11.574;2023-08-21T14:04:18;4.85;;;4.30;;
48002;SDS011;33768;48.578;11.574;2023-08-21T14:07:22;5.60;;;4.22;;
48002;SDS011;33768;48.578;11.574;2023-08-21T14:10:26;9.80;;;4.80;;
48002;SDS011;33768;48.578;11.574;2023-08-21T14:13:30;7.15;;;4.45;;
48002;SDS011;33768;48.578;11.574;2023-08-21T14:16:34;6.47;;;4.30;;
48002;SDS011;33768;48.578;11.574;2023-08-21T14:19:39;6.80;;;4.70;;
48002;SDS011;33768;48.578;11.574;2023-08-21T14:22:43;5.80;;;4.05;;
48002;SDS011;33768;48.578;11.574;2023-08-21T14:25:47;7.00;;;4.70;;
48002;SDS011;33768;48.578;11.574;2023-08-21T14:28:51;5.25;;;4.40;;
48002;SDS011;33768;48.578;11.574;2023-08-21T14:31:55;5.20;;;4.60;;
48002;SDS011;33768;48.578;11.574;2023-08-21T14:35:00;6.93;;;4.85;;
48002;SDS011;33768;48.578;11.574;2023-08-21T14:38:05;5.30;;;4.28;;
48002;SDS011;33768;48.578;11.574;2023-08-21T14:41:10;7.03;;;4.82;;
48002;SDS011;33768;48.578;11.574;2023-08-21T14:44:14;5.82;;;4.63;;
48002;SDS011;33768;48.578;11.574;2023-08-21T14:47:19;6.90;;;5.07;;
48002;SDS011;33768;48.578;11.574;2023-08-21T14:50:23;5.78;;;4.68;;
48002;SDS011;33768;48.578;11.574;2023-08-21T14:53:28;5.80;;;4.38;;
48002;SDS011;33768;48.578;11.574;2023-08-21T14:56:32;6.20;;;4.30;;
48002;SDS011;33768;48.578;11.574;2023-08-21T14:59:37;6.82;;;4.70;;
48002;SDS011;33768;48.578;11.574;2023-08-21T15:02:41;7.30;;;4.50;;
48002;SDS011;33768;48.578;11.574;2023-08-21T15:05:45;6.75;;;4.88;;
48002;SDS011;33768;48.578;11.574;2023-08-21T15:08:49;7.68;;;5.22;;
48002;SDS011;33768;48.578;11.574;2023-08-21T15:11:53;9.88;;;4.90;;
48002;SDS011;33768;48.578;11.574;2023-08-21T15:14:57;6.25;;;5.28;;
48002;SDS011;33768;48.578;11.574;2023-08-21T15:18:02;7.68;;;4.50;;
48002;SDS011;33768;48.578;11.574;2023-08-21T15:21:05;10.80;;;5.07;;
48002;SDS011;33768;48.578;11.574;2023-08-21T15:24:10;9.07;;;4.97;;
48002;SDS011;33768;48.578;11.574;2023-08-21T15:27:14;9.80;;;5.30;;
48002;SDS011;33768;48.578;11.574;2023-08-21T15:30:20;7.57;;;4.97;;
48002;SDS011;33768;48.578;11.574;2023-08-21T15:33:24;6.82;;;4.80;;
48002;SDS011;33768;48.578;11.574;2023-08-21T15:36:28;8.27;;;5.57;;
48002;SDS011;33768;48.578;11.574;2023-08-21T15:39:32;10.02;;;5.53;;
48002;SDS011;33768;48.578;11.574;2023-08-21T15:42:37;8.00;;;5.07;;
48002;SDS011;33768;48.578;11.574;2023-08-21T15:45:41;6.38;;;5.75;;
48002;SDS011;33768;48.578;11.574;2023-08-21T15:48:45;7.80;;;5.70;;
48002;SDS011;33768;48.578;11.574;2023-08-21T15:51:49;11.40;;;5.82;;
48002;SDS011;33768;48.578;11.574;2023-08-21T15:54:53;8.90;;;5.72;;
48002;SDS011;33768;48.578;11.574;2023-08-21T15:57:58;11.15;;;6.03;;
48002;SDS011;33768;48.578;11.574;2023-08-21T16:01:02;10.75;;;6.15;;
48002;SDS011;33768;48.578;11.574;2023-08-21T16:04:06;7.20;;;5.25;;
48002;SDS011;33768;48.578;11.574;2023-08-21T16:07:10;9.80;;;5.95;;
48002;SDS011;33768;48.578;11.574;2023-08-21T16:10:15;8.40;;;6.15;;
48002;SDS011;33768;48.578;11.574;2023-08-21T16:13:19;7.45;;;5.53;;
48002;SDS011;33768;48.578;11.574;2023-08-21T16:16:23;7.55;;;5.85;;
48002;SDS011;33768;48.578;11.574;2023-08-21T16:19:28;7.30;;;5.80;;
48002;SDS011;33768;48.578;11.574;2023-08-21T16:22:33;6.47;;;5.40;;
48002;SDS011;33768;48.578;11.574;2023-08-21T16:25:38;10.00;;;5.25;;
48002;SDS011;33768;48.578;11.574;2023-08-21T16:28:42;6.40;;;5.28;;
48002;SDS011;33768;48.578;11.574;2023-08-21T16:31:46;6.18;;;5.20;;
48002;SDS011;33768;48.578;11.574;2023-08-21T16:34:51;6.93;;;5.45;;
48002;SDS011;33768;48.578;11.574;2023-08-21T16:37:55;7.00;;;5.63;;
48002;SDS011;33768;48.578;11.574;2023-08-21T16:41:00;10.32;;;5.70;;
48002;SDS011;33768;48.578;11.574;2023-08-21T16:44:04;8.60;;;5.65;;
48002;SDS011;33768;48.578;11.574;2023-08-21T16:47:08;8.07;;;5.55;;
48002;SDS011;33768;48.578;11.574;2023-08-21T16:50:13;6.43;;;5.65;;
48002;SDS011;33768;48.578;11.574;2023-08-21T16:53:17;9.48;;;5.43;;
48002;SDS011;33768;48.578;11.574;2023-08-21T16:56:21;5.63;;;5.13;;
48002;SDS011;33768;48.578;11.574;2023-08-21T16:59:26;8.65;;;6.10;;
48002;SDS011;33768;48.578;11.574;2023-08-21T17:02:30;7.82;;;5.72;;
48002;SDS011;33768;48.578;11.574;2023-08-21T17:05:35;6.97;;;6.28;;
48002;SDS011;33768;48.578;11.574;2023-08-21T17:08:39;12.18;;;6.13;;
48002;SDS011;33768;48.578;11.574;2023-08-21T17:11:43;12.43;;;5.90;;
48002;SDS011;33768;48.578;11.574;2023-08-21T17:14:48;11.13;;;6.75;;
48002;SDS011;33768;48.578;11.574;2023-08-21T17:17:52;8.50;;;6.97;;
48002;SDS011;33768;48.578;11.574;2023-08-21T17:20:56;8.60;;;5.88;;
48002;SDS011;33768;48.578;11.574;2023-08-21T17:24:00;8.77;;;6.00;;
48002;SDS011;33768;48.578;11.574;2023-08-21T17:27:04;9.50;;;6.13;;
48002;SDS011;33768;48.578;11.574;2023-08-21T17:30:08;10.52;;;5.85;;
48002;SDS011;33768;48.578;11.574;2023-08-21T17:33:13;11.93;;;6.22;;
48002;SDS011;33768;48.578;11.574;2023-08-21T17:36:17;61.33;;;11.80;;
48002;SDS011;33768;48.578;11.574;2023-08-21T17:39:22;17.25;;;6.72;;
48002;SDS011;33768;48.578;11.574;2023-08-21T17:42:27;17.08;;;7.15;;
48002;SDS011;33768;48.578;11.574;2023-08-21T17:45:31;11.88;;;6.07;;
48002;SDS011;33768;48.578;11.574;2023-08-21T17:48:37;10.60;;;6.40;;
48002;SDS011;33768;48.578;11.574;2023-08-21T17:51:41;9.55;;;5.70;;
48002;SDS011;33768;48.578;11.574;2023-08-21T17:54:45;13.30;;;6.30;;
48002;SDS011;33768;48.578;11.574;2023-08-21T17:57:49;12.35;;;6.10;;
48002;SDS011;33768;48.578;11.574;2023-08-21T18:00:56;28.92;;;8.15;;
48002;SDS011;33768;48.578;11.574;2023-08-21T18:04:01;18.33;;;6.93;;
48002;SDS011;33768;48.578;11.574;2023-08-21T18:07:05;14.75;;;6.93;;
48002;SDS011;33768;48.578;11.574;2023-08-21T18:10:09;11.70;;;7.28;;
48002;SDS011;33768;48.578;11.574;2023-08-21T18:13:13;12.20;;;7.55;;
48002;SDS011;33768;48.578;11.574;2023-08-21T18:16:17;11.90;;;7.38;;
48002;SDS011;33768;48.578;11.574;2023-08-21T18:19:23;12.38;;;7.53;;
48002;SDS011;33768;48.578;11.574;2023-08-21T18:22:27;9.00;;;7.20;;
48002;SDS011;33768;48.578;11.574;2023-08-21T18:25:31;15.27;;;8.45;;
48002;SDS011;33768;48.578;11.574;2023-08-21T18:28:35;22.33;;;8.80;;